Time;durP1;ratioP1;P1;durP2;ratioP2;P2;SDS_P1;SDS_P2;PMS_P1;PMS_P2;Temp;Humidity;BMP_temperature;BMP_pressure;BME280_temperature;BME280_humidity;BME280_pressure;Samples;Min_cycle;Max_cycle;Signal;HPM_P1;HPM_P2
2021/09/02 00:00:23;;;;;;;7.97;4.85;;;;;;;6.41;85.69;91558.47;4985368;28;20057;-89
2021/09/02 00:03:01;;;;;;;8.18;4.88;;;;;;;6.42;86.21;91550.41;4985575;28;20079;-89
2021/09/02 00:05:34;;;;;;;8.18;4.55;;;;;;;6.48;85.78;91556.25;4985944;28;20401;-89
2021/09/02 00:08:10;;;;;;;8.20;4.65;;;;;;;6.36;84.89;91545.59;4985363;28;20021;-89
2021/09/02 00:10:44;;;;;;;12.30;5.30;;;;;;;6.40;85.58;91544.00;4985362;28;20036;-89
2021/09/02 00:13:20;;;;;;;8.82;4.88;;;;;;;6.54;84.71;91542.19;5001778;28;20029;-89
2021/09/02 00:15:52;;;;;;;10.50;5.75;;;;;;;6.40;84.66;91531.81;4985801;28;20462;-90
2021/09/02 00:18:23;;;;;;;7.55;4.63;;;;;;;6.57;85.28;91535.63;4985598;28;20029;-89
2021/09/02 00:20:59;;;;;;;8.48;4.82;;;;;;;6.42;84.93;91539.28;5000357;28;20049;-88
2021/09/02 00:23:34;;;;;;;8.50;5.00;;;;;;;6.48;84.01;91532.97;4985225;28;20029;-89
2021/09/02 00:26:14;;;;;;;9.98;4.70;;;;;;;6.51;85.12;91541.97;4984645;28;20029;-88
2021/09/02 00:28:47;;;;;;;8.73;4.70;;;;;;;6.28;85.03;91538.50;5001657;28;20486;-89
2021/09/02 00:31:24;;;;;;;9.30;5.10;;;;;;;6.19;85.25;91535.81;4984477;28;20048;-89
2021/09/02 00:33:59;;;;;;;8.07;4.90;;;;;;;6.05;85.02;91525.44;4985693;28;20278;-89
2021/09/02 00:36:26;;;;;;;7.75;4.97;;;;;;;6.06;86.30;91533.97;5001435;28;20021;-89
2021/09/02 00:39:06;;;;;;;8.43;5.60;;;;;;;6.07;85.98;91531.06;5001122;28;20021;-88
2021/09/02 00:41:44;;;;;;;11.43;5.05;;;;;;;6.07;87.49;91536.25;5017683;28;20021;-89
2021/09/02 00:44:35;;;;;;;8.77;5.35;;;;;;;6.11;87.43;91532.06;5001756;28;20029;-89
2021/09/02 00:47:12;;;;;;;10.55;5.57;;;;;;;6.19;87.90;91536.56;5001754;28;20029;-88
2021/09/02 00:49:45;;;;;;;10.65;5.32;;;;;;;5.99;86.79;91521.41;5001328;28;20409;-89
2021/09/02 00:52:28;;;;;;;8.00;5.07;;;;;;;5.88;86.28;91532.94;4985253;28;20021;-89
2021/09/02 00:55:12;;;;;;;9.15;5.32;;;;;;;5.97;86.10;91531.25;4986442;28;20270;-89
2021/09/02 00:57:48;;;;;;;9.00;4.93;;;;;;;5.89;85.72;91531.88;5001476;28;20112;-89
2021/09/02 01:00:22;;;;;;;8.25;5.15;;;;;;;5.92;86.02;91533.91;5001170;28;20021;-88
2021/09/02 01:02:57;;;;;;;7.57;4.70;;;;;;;5.80;85.83;91533.59;5001273;28;20486;-89
2021/09/02 01:05:42;;;;;;;8.48;5.20;;;;;;;5.92;85.81;91523.56;5001013;28;20040;-89
2021/09/02 01:08:18;;;;;;;9.52;5.47;;;;;;;5.81;86.38;91535.88;5002224;28;20029;-89
2021/09/02 01:10:48;;;;;;;8.40;4.90;;;;;;;5.75;85.93;91535.19;5001504;28;20629;-90
2021/09/02 01:13:28;;;;;;;9.98;5.00;;;;;;;5.96;86.35;91521.97;5001095;28;20504;-89
2021/09/02 01:16:02;;;;;;;9.85;5.47;;;;;;;5.74;87.11;91530.31;5002411;28;20018;-91
2021/09/02 01:18:41;;;;;;;15.40;5.70;;;;;;;5.80;87.58;91534.34;4983450;28;20037;-89
2021/09/02 01:21:13;;;;;;;13.15;6.00;;;;;;;5.65;87.38;91530.16;5016246;28;20116;-89
2021/09/02 01:23:49;;;;;;;9.70;5.00;;;;;;;5.61;86.54;91531.03;5015904;28;20021;-88
2021/09/02 01:26:28;;;;;;;11.13;4.93;;;;;;;5.58;86.32;91529.00;5033026;28;20056;-89
2021/09/02 01:29:03;;;;;;;9.70;4.93;;;;;;;5.56;85.78;91528.53;5016307;28;20055;-88
2021/09/02 01:31:43;;;;;;;8.88;4.95;;;;;;;5.49;86.11;91523.72;5016034;28;20025;-88
2021/09/02 01:34:16;;;;;;;9.20;4.90;;;;;;;5.45;85.63;91518.34;5000237;28;20045;-89
2021/09/02 01:36:54;;;;;;;7.57;4.75;;;;;;;5.59;85.22;91523.56;5016592;28;20025;-89
2021/09/02 01:39:38;;;;;;;11.20;6.28;;;;;;;5.69;86.11;91518.22;5016344;28;20060;-89
2021/09/02 01:42:20;;;;;;;9.68;5.22;;;;;;;5.63;86.11;91514.19;5016241;28;20037;-89
2021/09/02 01:44:57;;;;;;;10.75;5.75;;;;;;;5.55;87.70;91516.63;5016761;28;20021;-88
2021/09/02 01:47:33;;;;;;;10.60;5.05;;;;;;;5.54;87.57;91518.44;5016693;28;20413;-88
2021/09/02 01:50:19;;;;;;;12.57;5.93;;;;;;;5.55;88.64;91520.00;5016336;28;20025;-89
2021/09/02 01:52:55;;;;;;;10.98;5.85;;;;;;;5.71;87.72;91521.28;5033357;28;20025;-89
2021/09/02 01:55:30;;;;;;;7.68;4.70;;;;;;;5.72;85.18;91517.66;5016912;28;20018;-88
2021/09/02 01:58:07;;;;;;;8.70;4.55;;;;;;;5.64;85.95;91505.38;5017462;28;20485;-89
2021/09/02 02:00:47;;;;;;;9.35;4.90;;;;;;;5.46;86.36;91514.69;5016940;28;20490;-89
2021/09/02 02:03:23;;;;;;;9.30;5.90;;;;;;;5.30;87.05;91503.06;5016668;28;20056;-89
2021/09/02 02:05:56;;;;;;;8.02;5.30;;;;;;;5.26;87.02;91509.81;5015743;28;20116;-89
2021/09/02 02:08:36;;;;;;;10.60;5.03;;;;;;;5.31;87.28;91512.34;5016106;28;20025;-88
2021/09/02 02:11:13;;;;;;;11.35;5.55;;;;;;;5.17;87.58;91504.53;5015344;28;20021;-90
2021/09/02 02:13:49;;;;;;;10.40;5.57;;;;;;;5.33;87.57;91504.28;5016080;28;20026;-88
2021/09/02 02:16:24;;;;;;;9.50;5.55;;;;;;;5.30;87.33;91495.31;5015259;28;20501;-88
2021/09/02 02:19:03;;;;;;;10.68;5.47;;;;;;;5.27;87.27;91496.63;4984002;28;20477;-88
2021/09/02 02:21:34;;;;;;;11.05;6.05;;;;;;;5.34;88.29;91501.44;5015831;28;20556;-89
2021/09/02 02:24:12;;;;;;;11.40;4.90;;;;;;;5.27;87.26;91488.88;5001993;28;20033;-89
2021/09/02 02:26:48;;;;;;;10.13;5.38;;;;;;;5.35;87.98;91497.81;4986579;28;20458;-90
2021/09/02 02:29:26;;;;;;;11.55;5.85;;;;;;;5.32;88.37;91489.84;4979618;28;20025;-88
2021/09/02 02:32:04;;;;;;;14.35;6.47;;;;;;;5.30;88.91;91489.34;4979792;28;20029;-89
2021/09/02 02:34:38;;;;;;;12.63;6.53;;;;;;;5.32;88.30;91484.69;4996723;28;20104;-89
2021/09/02 02:37:14;;;;;;;9.37;5.30;;;;;;;5.23;87.02;91490.50;4979846;28;20033;-88
2021/09/02 02:39:54;;;;;;;13.32;5.28;;;;;;;5.20;86.22;91485.13;4990261;28;20104;-89
2021/09/02 02:42:31;;;;;;;9.90;5.50;;;;;;;5.13;87.49;91482.88;4998878;28;20021;-89
2021/09/02 02:45:06;;;;;;;9.63;5.45;;;;;;;5.34;89.08;91475.59;5000151;28;20021;-89
2021/09/02 02:47:41;;;;;;;12.32;6.63;;;;;;;5.33;89.90;91470.69;4999905;28;20030;-89
2021/09/02 02:50:16;;;;;;;11.23;6.57;;;;;;;5.31;90.57;91465.06;4983719;28;20041;-89
2021/09/02 02:52:53;;;;;;;10.35;5.90;;;;;;;5.35;89.66;91459.03;4999573;28;20438;-90
2021/09/02 02:55:33;;;;;;;10.10;5.68;;;;;;;5.36;87.95;91462.38;4983351;28;20022;-89
2021/09/02 02:58:09;;;;;;;11.27;6.15;;;;;;;5.33;89.55;91463.72;4999531;28;20049;-89
2021/09/02 03:00:45;;;;;;;10.13;6.00;;;;;;;5.37;89.90;91463.91;4983385;28;20065;-89
2021/09/02 03:03:19;;;;;;;10.85;6.20;;;;;;;5.37;89.90;91458.75;4984456;28;20029;-89
2021/09/02 03:05:48;;;;;;;10.05;5.60;;;;;;;5.42;89.22;91461.25;5004185;28;20118;-89
2021/09/02 03:08:25;;;;;;;10.00;5.80;;;;;;;5.35;89.96;91459.03;4986471;28;20039;-89
2021/09/02 03:11:00;;;;;;;9.05;5.90;;;;;;;5.37;90.40;91459.53;5018400;28;20029;-89
2021/09/02 03:13:36;;;;;;;9.30;5.65;;;;;;;5.41;89.22;91459.72;5003561;28;20025;-89
2021/09/02 03:16:14;;;;;;;9.52;5.35;;;;;;;5.40;89.69;91445.25;5034803;28;20018;-89
2021/09/02 03:18:45;;;;;;;9.77;5.78;;;;;;;5.38;89.73;91455.88;4998249;28;20108;-88
2021/09/02 03:21:21;;;;;;;9.88;5.80;;;;;;;5.41;89.25;91449.41;5001969;28;20043;-89
2021/09/02 03:23:57;;;;;;;11.00;6.07;;;;;;;5.46;88.91;91446.72;5019431;28;20021;-89
2021/09/02 03:26:32;;;;;;;8.52;5.63;;;;;;;5.37;88.58;91448.41;5019305;28;20029;-90
2021/09/02 03:29:05;;;;;;;10.73;5.90;;;;;;;5.28;88.56;91459.38;5002809;28;20052;-89
2021/09/02 03:31:43;;;;;;;12.32;5.53;;;;;;;5.22;87.63;91464.91;4986596;28;20113;-89
2021/09/02 03:34:16;;;;;;;9.18;5.43;;;;;;;5.14;88.39;91460.38;4986058;28;20026;-86
2021/09/02 03:36:51;;;;;;;10.63;5.90;;;;;;;5.16;89.19;91464.25;5003680;28;20029;-90
2021/09/02 03:39:32;;;;;;;9.10;5.20;;;;;;;5.37;88.72;91456.94;5003085;28;20064;-88
2021/09/02 03:42:07;;;;;;;10.68;5.43;;;;;;;5.33;88.46;91452.59;4987368;28;20037;-89
2021/09/02 03:44:46;;;;;;;9.70;5.55;;;;;;;5.31;88.24;91449.56;5003172;28;20130;-89
2021/09/02 03:47:24;;;;;;;11.40;5.90;;;;;;;5.25;88.47;91451.44;4987366;28;20033;-88
2021/09/02 03:50:01;;;;;;;11.82;6.35;;;;;;;5.20;89.17;91465.22;5003337;28;20104;-89
2021/09/02 03:52:37;;;;;;;10.32;5.82;;;;;;;5.12;88.64;91459.88;5003561;28;20025;-89
2021/09/02 03:55:04;;;;;;;11.52;5.30;;;;;;;5.04;87.72;91461.28;5003499;28;20045;-90
2021/09/02 03:57:41;;;;;;;10.13;5.30;;;;;;;4.98;87.28;91460.63;4986057;28;20029;-89
2021/09/02 04:00:18;;;;;;;10.75;5.88;;;;;;;5.02;88.30;91460.81;5002828;28;20029;-89
2021/09/02 04:03:00;;;;;;;9.65;5.50;;;;;;;5.00;87.52;91460.31;4986796;28;20033;-90
2021/09/02 04:05:35;;;;;;;8.60;5.25;;;;;;;4.88;87.76;91467.75;4986587;28;20110;-89
2021/09/02 04:08:15;;;;;;;10.98;5.20;;;;;;;5.00;86.83;91468.84;5002034;28;20033;-88
2021/09/02 04:10:48;;;;;;;9.13;5.10;;;;;;;4.94;87.37;91466.59;5004171;28;20022;-89
2021/09/02 04:13:28;;;;;;;8.75;5.40;;;;;;;4.92;86.77;91468.72;4986831;28;20022;-90
2021/09/02 04:16:06;;;;;;;7.72;4.47;;;;;;;4.89;87.01;91466.69;5006366;28;20021;-89
2021/09/02 04:18:38;;;;;;;9.85;5.25;;;;;;;4.72;87.75;91469.75;5057018;23;20136;-87
2021/09/02 04:21:14;;;;;;;12.38;5.10;;;;;;;4.75;87.83;91479.53;5006939;28;20511;-86
2021/09/02 04:23:49;;;;;;;8.80;5.45;;;;;;;4.81;87.63;91472.47;4992090;28;20532;-85
2021/09/02 04:26:28;;;;;;;9.43;5.00;;;;;;;4.83;87.20;91478.88;5007345;28;20773;-87
2021/09/02 04:29:09;;;;;;;9.35;5.35;;;;;;;4.69;87.05;91473.63;4991024;28;20095;-87
2021/09/02 04:31:42;;;;;;;10.05;5.15;;;;;;;4.83;86.40;91478.13;5007894;28;20057;-87
2021/09/02 04:34:17;;;;;;;9.02;4.78;;;;;;;4.63;86.31;91481.72;5007046;28;20034;-88
2021/09/02 04:36:55;;;;;;;8.27;4.78;;;;;;;4.45;86.86;91472.91;5008163;28;20025;-86
2021/09/02 04:39:31;;;;;;;9.30;5.35;;;;;;;4.39;87.05;91466.28;4991298;28;20029;-88
2021/09/02 04:42:05;;;;;;;8.38;4.78;;;;;;;4.48;88.08;91469.78;5008277;28;20025;-87
2021/09/02 04:44:46;;;;;;;7.95;5.32;;;;;;;4.58;88.79;91472.25;5007089;28;20030;-86
2021/09/02 04:47:22;;;;;;;7.25;4.68;;;;;;;4.54;87.09;91472.03;5008297;28;20022;-87
2021/09/02 04:49:56;;;;;;;8.73;5.30;;;;;;;4.47;86.50;91470.84;4990358;28;20022;-87
2021/09/02 04:52:34;;;;;;;8.73;5.05;;;;;;;4.42;86.86;91470.91;4991509;28;20026;-87
2021/09/02 04:55:10;;;;;;;11.40;5.20;;;;;;;4.50;85.78;91478.03;5007511;28;20371;-89
2021/09/02 04:57:44;;;;;;;8.23;4.90;;;;;;;4.42;86.66;91473.47;4991153;28;20021;-86
2021/09/02 05:00:21;;;;;;;9.65;5.60;;;;;;;4.34;87.27;91479.22;4990533;28;20032;-86
2021/09/02 05:03:00;;;;;;;9.65;5.30;;;;;;;4.45;87.12;91485.81;5006396;28;20038;-87
2021/09/02 05:05:36;;;;;;;13.13;5.88;;;;;;;4.31;88.45;91485.72;5007480;28;20026;-86
2021/09/02 05:08:14;;;;;;;10.00;5.45;;;;;;;4.41;87.94;91484.84;4991040;28;20171;-87
2021/09/02 05:10:49;;;;;;;8.88;5.32;;;;;;;4.42;88.91;91486.38;4990989;28;20056;-87
2021/09/02 05:13:23;;;;;;;13.10;6.57;;;;;;;4.45;89.46;91484.03;5006670;28;20033;-88
2021/09/02 05:15:59;;;;;;;10.30;5.83;;;;;;;4.46;88.96;91493.28;5022872;28;20028;-86
2021/09/02 05:18:40;;;;;;;8.60;5.28;;;;;;;4.51;88.63;91487.28;5007716;28;20270;-87
2021/09/02 05:21:13;;;;;;;13.07;5.90;;;;;;;4.59;89.45;91491.06;5022625;28;20086;-88
2021/09/02 05:23:45;;;;;;;8.82;5.53;;;;;;;4.75;89.71;91490.63;5006255;28;20025;-88
2021/09/02 05:26:16;;;;;;;9.60;4.80;;;;;;;4.84;88.77;91487.41;5005640;28;20514;-86
2021/09/02 05:28:54;;;;;;;8.40;4.95;;;;;;;4.89;87.93;91489.94;5006974;28;20021;-87
2021/09/02 05:31:28;;;;;;;14.70;6.03;;;;;;;4.90;89.11;91481.88;4989630;28;20112;-87
2021/09/02 05:34:09;;;;;;;8.73;5.25;;;;;;;4.94;89.27;91479.53;4986857;28;20033;-87
2021/09/02 05:36:44;;;;;;;13.00;6.07;;;;;;;5.05;89.05;91486.06;5005360;28;20587;-86
2021/09/02 05:39:20;;;;;;;8.98;5.28;;;;;;;5.24;88.27;91483.50;4987341;28;20037;-88
2021/09/02 05:41:56;;;;;;;7.95;5.22;;;;;;;5.28;87.67;91484.47;4987474;28;20089;-88
2021/09/02 05:44:37;;;;;;;11.10;6.03;;;;;;;5.29;89.27;91483.41;5012193;28;20010;-87
2021/09/02 05:47:08;;;;;;;13.32;6.57;;;;;;;5.32;89.62;91482.09;4998409;28;20104;-87
2021/09/02 05:49:44;;;;;;;11.73;6.20;;;;;;;5.50;90.15;91491.63;4984697;28;20030;-85
2021/09/02 05:52:19;;;;;;;12.48;6.10;;;;;;;5.69;90.12;91478.69;5002317;28;20081;-86
2021/09/02 05:54:56;;;;;;;9.75;5.20;;;;;;;5.74;89.08;91484.53;5002879;28;20040;-86
2021/09/02 05:57:25;;;;;;;15.32;5.82;;;;;;;5.83;89.13;91483.84;4984071;28;20034;-85
2021/09/02 05:59:55;;;;;;;10.18;5.25;;;;;;;5.80;89.03;91481.88;4986171;28;20021;-87
2021/09/02 06:02:22;;;;;;;11.00;5.93;;;;;;;5.73;88.90;91471.88;5003460;28;20397;-85
2021/09/02 06:04:52;;;;;;;9.88;5.38;;;;;;;6.00;87.86;91481.53;4987349;28;20075;-87
2021/09/02 06:07:22;;;;;;;12.02;6.07;;;;;;;5.93;88.03;91475.97;4987745;28;20033;-85
2021/09/02 06:09:48;;;;;;;9.60;5.43;;;;;;;5.92;89.80;91475.19;5002796;28;20026;-86
2021/09/02 06:12:14;;;;;;;10.20;5.80;;;;;;;6.09;89.70;91469.47;5004145;28;20028;-85
2021/09/02 06:14:44;;;;;;;10.30;5.85;;;;;;;6.20;89.15;91464.88;4988006;28;20028;-87
2021/09/02 06:17:11;;;;;;;9.30;5.60;;;;;;;6.51;88.12;91475.44;5003795;28;20026;-86
2021/09/02 06:19:45;;;;;;;9.10;5.95;;;;;;;6.41;89.70;91476.38;4987483;28;20044;-85
2021/09/02 06:22:19;;;;;;;10.80;6.07;;;;;;;6.61;88.77;91475.22;5004448;28;20025;-88
2021/09/02 06:24:50;;;;;;;11.15;6.32;;;;;;;6.58;88.87;91478.38;5004780;28;20501;-86
2021/09/02 06:27:22;;;;;;;12.10;6.60;;;;;;;6.59;90.96;91479.91;5003432;28;20033;-86
2021/09/02 06:29:51;;;;;;;12.50;6.32;;;;;;;6.65;90.26;91485.78;4998452;28;20414;-87
2021/09/02 06:32:19;;;;;;;12.02;6.95;;;;;;;6.78;91.30;91484.22;4987949;28;20033;-88
2021/09/02 06:34:48;;;;;;;12.57;7.32;;;;;;;6.88;91.11;91489.19;5000871;28;20168;-87
2021/09/02 06:37:18;;;;;;;13.25;7.32;;;;;;;7.18;91.79;91498.16;4983163;28;20497;-86
2021/09/02 06:39:46;;;;;;;12.40;7.80;;;;;;;7.29;91.49;91489.09;4995409;28;20060;-87
2021/09/02 06:42:17;;;;;;;11.55;7.25;;;;;;;7.43;91.62;91491.63;4997116;28;20037;-88
2021/09/02 06:44:48;;;;;;;13.73;7.63;;;;;;;7.52;91.33;91487.25;4980954;28;20021;-87
2021/09/02 06:47:16;;;;;;;14.85;7.97;;;;;;;7.66;90.93;91493.16;5012291;28;20026;-86
2021/09/02 06:49:54;;;;;;;17.02;9.13;;;;;;;7.90;90.94;91497.28;4978819;28;20053;-88
2021/09/02 06:52:19;;;;;;;15.25;9.02;;;;;;;8.31;92.72;91496.28;4982419;28;20030;-87
2021/09/02 06:54:46;;;;;;;16.33;8.18;;;;;;;8.46;91.60;91495.91;4983494;28;20501;-88
2021/09/02 06:57:17;;;;;;;15.18;8.25;;;;;;;9.03;86.15;91503.69;4999356;28;20054;-87
2021/09/02 06:59:45;;;;;;;14.35;8.68;;;;;;;9.08;88.37;91503.56;4998725;28;20026;-85
2021/09/02 07:02:14;;;;;;;17.45;9.45;;;;;;;9.29;87.02;91502.94;4982427;28;20084;-87
2021/09/02 07:08:13;;;;;;;18.15;9.50;;;;;;;9.59;85.49;91501.28;5035364;28;20513;-87
2021/09/02 07:10:41;;;;;;;16.27;9.07;;;;;;;9.84;84.12;91506.78;5000108;28;20473;-86
2021/09/02 07:13:08;;;;;;;15.13;8.40;;;;;;;10.06;80.38;91489.13;5001653;28;20116;-86
2021/09/02 07:15:33;;;;;;;17.15;9.00;;;;;;;10.18;80.58;91495.53;4984380;28;20017;-86
2021/09/02 07:17:59;;;;;;;18.65;8.90;;;;;;;10.15;81.43;91507.34;4984170;28;20049;-87
2021/09/02 07:20:25;;;;;;;17.30;9.18;;;;;;;10.22;82.04;91505.03;5013499;28;20034;-87
2021/09/02 07:22:59;;;;;;;18.42;8.40;;;;;;;10.44;80.85;91504.06;5006824;28;20025;-91
2021/09/02 07:25:32;;;;;;;17.38;9.07;;;;;;;10.49;80.48;91510.94;5024557;28;20046;-91
2021/09/02 07:28:00;;;;;;;17.13;8.20;;;;;;;10.56;78.23;91510.44;5009207;28;20018;-86
2021/09/02 07:30:28;;;;;;;17.23;9.15;;;;;;;10.64;79.56;91512.28;4988671;28;20371;-86
2021/09/02 07:32:57;;;;;;;17.33;8.32;;;;;;;10.82;77.14;91512.97;5000756;28;20060;-87
2021/09/02 07:35:24;;;;;;;14.82;8.18;;;;;;;10.82;76.57;91511.13;5000796;28;20022;-87
2021/09/02 07:37:54;;;;;;;16.20;9.02;;;;;;;10.96;76.54;91508.28;5000194;28;20025;-86
2021/09/02 07:40:22;;;;;;;14.77;7.80;;;;;;;11.00;75.84;91509.94;4984791;28;20485;-88
2021/09/02 07:42:50;;;;;;;16.20;8.48;;;;;;;10.95;76.44;91512.75;4985320;28;20036;-87
2021/09/02 07:45:17;;;;;;;16.65;8.15;;;;;;;11.20;76.08;91516.28;4999983;28;20021;-87
2021/09/02 07:47:46;;;;;;;15.65;7.82;;;;;;;11.35;75.07;91520.16;4983684;28;20485;-86
2021/09/02 07:50:16;;;;;;;13.63;7.95;;;;;;;11.40;75.27;91517.38;4986520;28;20026;-87
2021/09/02 07:52:44;;;;;;;13.95;7.95;;;;;;;11.46;74.85;91521.31;5004173;28;20228;-88
2021/09/02 07:55:11;;;;;;;14.32;7.85;;;;;;;11.47;75.23;91527.31;5004862;28;20017;-88
2021/09/02 07:57:42;;;;;;;13.50;7.78;;;;;;;11.55;73.81;91528.31;4998766;28;20092;-87
2021/09/02 08:00:10;;;;;;;15.05;8.63;;;;;;;11.69;73.00;91528.81;5012811;28;20033;-88
2021/09/02 08:02:35;;;;;;;13.25;7.32;;;;;;;11.81;75.44;91533.34;5003847;28;20382;-87
2021/09/02 08:05:04;;;;;;;14.13;7.78;;;;;;;12.11;74.20;91523.59;5003023;28;20079;-87
2021/09/02 08:07:32;;;;;;;14.25;7.75;;;;;;;12.20;73.68;91521.66;5002840;28;20033;-87
2021/09/02 08:10:00;;;;;;;19.27;8.23;;;;;;;12.20;72.63;91516.44;5002722;28;20079;-87
2021/09/02 08:12:29;;;;;;;14.90;8.00;;;;;;;12.05;72.45;91517.03;4986840;28;20116;-87
2021/09/02 08:14:58;;;;;;;15.18;8.00;;;;;;;12.14;72.96;91521.09;4986410;28;20025;-88
2021/09/02 08:17:29;;;;;;;14.10;8.32;;;;;;;12.17;73.14;91517.09;5002681;28;20033;-88
2021/09/02 08:19:55;;;;;;;15.93;8.07;;;;;;;12.32;72.61;91524.28;5003173;28;20108;-87
2021/09/02 08:22:23;;;;;;;14.32;7.93;;;;;;;12.40;73.57;91528.69;5003918;28;20029;-87
2021/09/02 08:24:49;;;;;;;18.65;8.15;;;;;;;12.38;71.95;91528.25;5004313;28;20017;-87
2021/09/02 08:27:17;;;;;;;16.75;8.10;;;;;;;12.46;74.12;91525.84;4986695;28;20517;-87
2021/09/02 08:29:45;;;;;;;15.82;7.68;;;;;;;12.51;73.03;91525.63;5001689;28;20034;-87
2021/09/02 08:32:12;;;;;;;12.75;7.35;;;;;;;12.60;72.30;91518.47;5001707;28;20033;-88
2021/09/02 08:34:37;;;;;;;12.88;7.60;;;;;;;12.71;71.63;91519.56;4998379;28;20117;-88
2021/09/02 08:37:04;;;;;;;13.02;7.47;;;;;;;12.84;70.88;91522.97;4966409;28;20025;-89
2021/09/02 08:39:29;;;;;;;15.95;8.02;;;;;;;12.76;71.18;91522.00;4982345;28;20486;-88
2021/09/02 08:41:55;;;;;;;13.77;7.93;;;;;;;13.31;70.69;91518.06;4966157;28;20037;-87
2021/09/02 08:44:21;;;;;;;13.00;7.32;;;;;;;13.48;70.34;91521.53;4981387;28;20437;-87
2021/09/02 08:46:46;;;;;;;12.25;7.32;;;;;;;13.54;68.74;91518.38;4966029;28;20445;-88
2021/09/02 08:49:12;;;;;;;14.75;8.07;;;;;;;13.25;69.52;91514.16;4965858;28;20076;-87
2021/09/02 08:51:37;;;;;;;16.50;9.23;;;;;;;13.25;70.12;91518.63;4982638;28;20033;-89
2021/09/02 08:54:04;;;;;;;12.95;8.05;;;;;;;13.21;70.37;91521.09;5004083;28;20018;-89
2021/09/02 08:56:30;;;;;;;14.68;8.63;;;;;;;13.24;69.41;91517.84;4998073;28;20034;-88
2021/09/02 08:58:55;;;;;;;14.48;8.05;;;;;;;13.23;69.64;91521.53;5001713;28;20493;-86
2021/09/02 09:01:21;;;;;;;14.73;7.75;;;;;;;13.25;69.32;91516.78;5016363;28;20025;-88
2021/09/02 09:03:50;;;;;;;13.98;7.60;;;;;;;13.46;71.80;91514.00;5017979;28;20026;-87
2021/09/02 09:06:24;;;;;;;16.25;7.82;;;;;;;13.47;70.03;91514.78;5001060;28;20494;-88
2021/09/02 09:08:50;;;;;;;15.68;8.02;;;;;;;13.56;67.97;91510.94;5001402;28;20437;-87
2021/09/02 09:11:24;;;;;;;17.35;8.18;;;;;;;13.63;70.54;91510.38;5001070;28;20056;-89
2021/09/02 09:14:06;;;;;;;15.38;7.90;;;;;;;13.88;69.10;91505.81;5002559;28;20049;-89
2021/09/02 09:16:47;;;;;;;13.98;8.48;;;;;;;13.76;69.52;91513.72;5001897;28;20387;-88
2021/09/02 09:19:39;;;;;;;13.65;8.38;;;;;;;13.88;68.66;91511.81;5000839;28;20026;-87
2021/09/02 09:22:06;;;;;;;15.90;8.30;;;;;;;13.84;67.43;91508.34;4981541;28;20026;-87
2021/09/02 09:24:46;;;;;;;14.90;7.60;;;;;;;14.07;67.07;91507.84;4997782;28;20105;-87
2021/09/02 09:27:14;;;;;;;13.80;8.20;;;;;;;14.18;69.38;91493.13;5015184;28;20030;-87
2021/09/02 09:29:42;;;;;;;14.93;8.38;;;;;;;14.28;67.82;91500.53;4997541;28;20398;-88
2021/09/02 09:32:18;;;;;;;13.45;7.63;;;;;;;14.29;66.04;91494.16;4982670;28;20785;-87
2021/09/02 09:34:50;;;;;;;12.63;7.35;;;;;;;14.29;67.03;91502.03;4980514;28;20486;-88
2021/09/02 09:37:18;;;;;;;15.07;8.05;;;;;;;14.44;67.51;91494.53;4980788;28;20033;-87
2021/09/02 09:39:45;;;;;;;14.63;8.10;;;;;;;14.57;67.37;91488.16;4980204;28;20026;-88
2021/09/02 09:42:13;;;;;;;13.20;7.63;;;;;;;14.62;66.37;91485.25;4964766;28;20028;-87
2021/09/02 09:44:44;;;;;;;17.58;8.27;;;;;;;14.70;66.07;91492.22;4964053;28;20112;-88
2021/09/02 09:47:19;;;;;;;12.00;7.70;;;;;;;14.78;66.32;91488.66;4997661;28;20125;-88
2021/09/02 09:49:48;;;;;;;15.60;7.28;;;;;;;14.92;66.44;91488.22;4993021;28;20054;-89
2021/09/02 09:52:30;;;;;;;13.13;7.60;;;;;;;14.97;63.82;91495.06;4996223;28;20037;-89
2021/09/02 09:55:11;;;;;;;13.07;7.20;;;;;;;15.13;64.22;91490.56;4996578;28;20049;-87
2021/09/02 09:57:40;;;;;;;13.65;7.65;;;;;;;15.26;64.14;91484.13;5012801;28;20076;-89
2021/09/02 10:00:09;;;;;;;13.18;7.00;;;;;;;15.20;64.44;91492.59;4979883;28;20030;-89
2021/09/02 10:02:39;;;;;;;17.10;7.65;;;;;;;15.25;64.88;91479.94;4996241;28;20025;-89
2021/09/02 10:05:07;;;;;;;12.52;7.10;;;;;;;15.49;63.83;91488.72;4980329;28;20521;-88
2021/09/02 10:07:35;;;;;;;11.50;6.57;;;;;;;15.50;63.39;91495.47;5000921;28;20036;-92
2021/09/02 10:10:03;;;;;;;13.00;6.90;;;;;;;15.54;63.28;91498.94;5008711;28;20478;-87
2021/09/02 10:12:34;;;;;;;10.23;6.80;;;;;;;15.62;63.52;91487.50;4985795;28;20460;-88
2021/09/02 10:15:15;;;;;;;13.13;6.95;;;;;;;15.66;63.63;91485.72;5000923;28;20104;-88
2021/09/02 10:17:45;;;;;;;13.02;6.78;;;;;;;15.74;62.44;91484.75;4999650;28;20018;-88
2021/09/02 10:20:23;;;;;;;13.93;7.00;;;;;;;16.02;63.50;91475.91;5072799;23;20512;-89
2021/09/02 10:22:56;;;;;;;12.48;6.20;;;;;;;15.89;62.25;91477.91;5049738;28;20024;-89
2021/09/02 10:25:45;;;;;;;13.68;7.10;;;;;;;16.04;61.77;91478.91;5033701;28;20017;-89
2021/09/02 10:28:20;;;;;;;11.18;6.20;;;;;;;16.08;61.05;91471.88;5061849;28;20033;-89
2021/09/02 10:30:53;;;;;;;10.85;6.15;;;;;;;16.35;62.58;91472.72;5050711;28;20024;-90
2021/09/02 10:33:42;;;;;;;8.82;5.57;;;;;;;16.55;60.74;91468.19;5088366;28;20028;-89
2021/09/02 10:36:15;;;;;;;9.90;6.88;;;;;;;16.40;60.19;91466.44;5052311;28;20051;-90
2021/09/02 10:38:52;;;;;;;10.23;6.43;;;;;;;16.43;59.22;91469.13;5085193;28;20104;-90
2021/09/02 10:41:41;;;;;;;11.45;6.13;;;;;;;16.75;61.21;91462.88;5085966;28;20376;-91
2021/09/02 10:44:09;;;;;;;13.57;7.22;;;;;;;16.72;60.27;91466.97;5117924;28;20107;-92
2021/09/02 10:46:51;;;;;;;11.35;6.55;;;;;;;16.72;60.55;91467.72;5064919;28;20028;-89
2021/09/02 10:49:27;;;;;;;12.80;5.97;;;;;;;16.79;61.48;91471.63;5047414;28;20124;-89
2021/09/02 10:52:08;;;;;;;11.52;6.47;;;;;;;16.81;60.49;91467.50;5024601;28;20025;-91
2021/09/02 10:54:38;;;;;;;11.55;6.63;;;;;;;17.02;59.60;91472.34;5046896;28;20028;-90
2021/09/02 10:57:16;;;;;;;10.30;5.95;;;;;;;17.11;57.59;91472.84;5061872;28;20032;-91
2021/09/02 10:59:53;;;;;;;12.32;5.78;;;;;;;17.14;57.84;91464.25;5035180;28;20029;-90
2021/09/02 11:02:25;;;;;;;9.38;6.63;;;;;;;17.26;58.78;91467.78;5054431;28;20032;-90
2021/09/02 11:04:58;;;;;;;11.70;6.30;;;;;;;17.26;58.04;91473.81;5046364;28;20056;-91
2021/09/02 11:07:44;;;;;;;8.95;5.30;;;;;;;17.50;57.52;91472.63;5055180;28;20103;-90
2021/09/02 11:10:16;;;;;;;9.73;5.88;;;;;;;17.48;56.09;91474.84;5088784;28;20024;-90
2021/09/02 11:12:50;;;;;;;13.38;6.07;;;;;;;17.43;56.43;91473.31;5071645;28;20096;-89
2021/09/02 11:15:24;;;;;;;11.82;6.13;;;;;;;17.39;56.62;91466.47;5054789;28;20052;-90
2021/09/02 11:18:03;;;;;;;10.30;5.78;;;;;;;17.43;56.11;91467.28;5073084;28;20027;-90
2021/09/02 11:20:35;;;;;;;9.90;5.60;;;;;;;17.59;56.74;91454.66;5073650;28;20024;-91
2021/09/02 11:23:13;;;;;;;9.70;5.47;;;;;;;17.56;54.86;91450.13;5073647;28;20119;-90
2021/09/02 11:25:47;;;;;;;9.32;5.75;;;;;;;17.71;56.28;91455.59;5056632;28;20088;-89
2021/09/02 11:28:23;;;;;;;10.47;5.47;;;;;;;18.00;56.08;91457.44;5056996;28;20020;-89
2021/09/02 11:30:52;;;;;;;9.98;5.70;;;;;;;18.01;55.31;91458.97;5057979;28;20332;-91
2021/09/02 11:33:22;;;;;;;8.18;5.50;;;;;;;18.06;54.96;91458.66;5055424;28;20085;-90
2021/09/02 11:35:59;;;;;;;7.78;4.90;;;;;;;18.28;53.05;91464.16;5069216;28;20111;-90
2021/09/02 11:38:29;;;;;;;11.20;5.30;;;;;;;18.33;51.53;91458.53;5039819;28;20034;-90
2021/09/02 11:40:58;;;;;;;8.38;5.30;;;;;;;18.39;51.32;91465.03;5038734;28;20048;-91
2021/09/02 11:43:25;;;;;;;9.23;5.28;;;;;;;18.48;53.48;91465.50;5038512;28;20032;-90
2021/09/02 11:45:54;;;;;;;8.68;5.15;;;;;;;18.43;51.78;91460.53;5056647;28;20025;-90
2021/09/02 11:48:24;;;;;;;8.45;5.15;;;;;;;18.43;52.43;91457.88;5055821;28;20024;-91
2021/09/02 11:50:59;;;;;;;8.38;5.07;;;;;;;18.39;51.34;91462.38;5088829;28;20035;-89
2021/09/02 11:53:40;;;;;;;8.82;5.13;;;;;;;18.49;50.76;91467.00;5044840;28;20103;-90
2021/09/02 11:56:21;;;;;;;9.32;5.47;;;;;;;18.49;51.89;91459.09;5073901;28;20024;-90
2021/09/02 11:59:01;;;;;;;11.70;5.55;;;;;;;18.63;51.33;91455.81;5023912;28;20059;-90
2021/09/02 12:01:37;;;;;;;10.48;5.70;;;;;;;18.72;50.74;91469.47;5040790;28;20039;-90
2021/09/02 12:04:07;;;;;;;10.45;5.32;;;;;;;18.74;52.89;91464.59;5040855;28;20027;-89
2021/09/02 12:06:38;;;;;;;12.20;5.45;;;;;;;18.75;50.50;91460.09;5040426;28;20036;-89